Time;durP1;ratioP1;P1;durP2;ratioP2;P2;SDS_P1;SDS_P2;PMS_P1;PMS_P2;Temp;Humidity;BMP_temperature;BMP_pressure;BME280_temperature;BME280_humidity;BME280_pressure;Samples;Min_cycle;Max_cycle;Signal;HPM_P1;HPM_P2
2023/10/08 00:01:13;;;;;;;32.70;9.63;;;10.80;99.90;;;;;;5075505;28;20414;-46
2023/10/08 00:03:38;;;;;;;33.73;10.53;;;10.70;99.90;;;;;;5075903;28;20910;-47
2023/10/08 00:06:12;;;;;;;26.90;8.90;;;10.80;99.90;;;;;;5075870;28;20420;-46
2023/10/08 00:08:38;;;;;;;38.17;9.63;;;10.80;99.90;;;;;;5075977;28;20180;-46
2023/10/08 00:11:07;;;;;;;25.50;9.43;;;10.80;99.90;;;;;;5076159;28;20853;-46
2023/10/08 00:13:43;;;;;;;28.43;8.07;;;10.80;99.90;;;;;;5076286;28;20539;-46
2023/10/08 00:16:11;;;;;;;28.43;9.33;;;10.80;99.90;;;;;;5076344;28;20745;-45
2023/10/08 00:18:38;;;;;;;28.10;8.40;;;10.70;99.90;;;;;;5076053;28;20454;-45
2023/10/08 00:23:41;;;;;;;21.53;8.10;;;10.70;99.90;;;;;;5076025;28;20494;-46
2023/10/08 00:26:08;;;;;;;26.43;8.50;;;10.70;99.90;;;;;;5075590;28;20406;-46
2023/10/08 00:28:34;;;;;;;28.70;8.00;;;10.70;99.90;;;;;;5075198;28;20413;-46
2023/10/08 00:31:12;;;;;;;31.77;8.40;;;10.70;99.90;;;;;;5075382;28;20463;-46
2023/10/08 00:33:39;;;;;;;24.73;7.47;;;10.70;99.90;;;;;;5075543;28;20488;-46
2023/10/08 00:36:17;;;;;;;25.53;6.83;;;10.70;99.90;;;;;;5075612;28;20485;-46
2023/10/08 00:38:50;;;;;;;20.93;7.20;;;10.80;99.90;;;;;;5075773;28;20547;-46
2023/10/08 00:41:16;;;;;;;17.33;6.30;;;10.80;99.90;;;;;;5075326;28;20443;-46
2023/10/08 00:43:44;;;;;;;28.27;6.97;;;10.80;99.90;;;;;;5075398;28;20516;-46
2023/10/08 00:46:24;;;;;;;18.20;6.63;;;10.80;99.90;;;;;;5074826;28;20763;-45
2023/10/08 00:48:54;;;;;;;21.73;6.70;;;10.70;99.90;;;;;;5075599;28;20411;-46
2023/10/08 00:53:59;;;;;;;18.43;5.53;;;10.80;99.90;;;;;;5075501;28;20424;-46
2023/10/08 00:59:14;;;;;;;14.90;5.20;;;10.80;99.90;;;;;;5075291;28;20454;-46
2023/10/08 01:01:40;;;;;;;20.00;6.00;;;10.80;99.90;;;;;;5075198;28;20417;-46
2023/10/08 01:04:11;;;;;;;11.33;5.00;;;10.80;99.90;;;;;;5075230;28;20418;-45
2023/10/08 01:06:39;;;;;;;14.60;5.87;;;10.70;99.90;;;;;;5074635;28;20419;-46
2023/10/08 01:09:18;;;;;;;17.27;6.30;;;10.70;99.90;;;;;;5074693;28;20422;-45
2023/10/08 01:11:50;;;;;;;25.87;6.53;;;10.70;99.90;;;;;;5074435;28;20944;-46
2023/10/08 01:14:21;;;;;;;21.13;6.40;;;10.70;99.90;;;;;;5075597;28;20455;-46
2023/10/08 01:16:47;;;;;;;12.70;4.70;;;10.70;99.90;;;;;;5074905;28;20418;-45
2023/10/08 01:19:20;;;;;;;24.13;5.50;;;10.70;99.90;;;;;;5072962;28;20426;-46
2023/10/08 01:21:45;;;;;;;19.20;5.53;;;10.80;99.90;;;;;;5074494;28;20408;-46
2023/10/08 01:24:16;;;;;;;22.00;5.20;;;10.80;99.90;;;;;;5074478;28;20528;-46
2023/10/08 01:26:42;;;;;;;12.90;5.23;;;10.70;99.90;;;;;;5074450;28;20611;-46
2023/10/08 01:29:19;;;;;;;23.90;6.07;;;10.70;99.90;;;;;;5074399;28;20503;-46
2023/10/08 01:31:46;;;;;;;14.37;5.00;;;10.70;99.90;;;;;;5073981;28;20213;-45
2023/10/08 01:34:16;;;;;;;24.37;5.43;;;10.70;99.90;;;;;;5074038;28;20457;-45
2023/10/08 01:36:45;;;;;;;19.03;4.47;;;10.80;99.90;;;;;;5074158;28;20430;-46
2023/10/08 01:39:20;;;;;;;20.70;4.80;;;10.70;99.90;;;;;;5074446;28;20513;-45
2023/10/08 01:41:51;;;;;;;27.90;4.87;;;10.80;99.90;;;;;;5074480;28;20485;-46
2023/10/08 01:44:16;;;;;;;30.20;5.33;;;10.70;99.90;;;;;;5074205;28;20410;-46
2023/10/08 01:46:43;;;;;;;15.00;4.57;;;10.70;99.90;;;;;;5074229;28;20406;-47
2023/10/08 01:49:13;;;;;;;13.07;4.60;;;10.70;99.90;;;;;;5074176;28;20206;-46
2023/10/08 01:51:44;;;;;;;13.03;4.50;;;10.70;99.90;;;;;;5073980;28;21041;-47
2023/10/08 01:54:10;;;;;;;11.77;4.37;;;10.70;99.90;;;;;;5074162;28;20422;-45
2023/10/08 01:56:41;;;;;;;16.53;4.50;;;10.70;99.90;;;;;;5073927;28;20420;-46
2023/10/08 01:59:09;;;;;;;9.40;3.93;;;10.70;99.90;;;;;;5073636;28;20455;-46
2023/10/08 02:01:35;;;;;;;12.63;4.00;;;10.70;99.90;;;;;;5074028;28;20507;-46
2023/10/08 02:04:01;;;;;;;19.90;3.40;;;10.70;99.90;;;;;;5073594;28;20411;-45
2023/10/08 02:06:27;;;;;;;19.30;6.43;;;10.70;99.90;;;;;;5073138;28;20442;-45
2023/10/08 02:08:53;;;;;;;7.80;3.63;;;10.70;99.90;;;;;;5072547;28;20470;-45
2023/10/08 02:11:20;;;;;;;9.70;3.20;;;10.70;99.90;;;;;;5073671;28;20223;-47
2023/10/08 02:13:46;;;;;;;10.03;3.33;;;10.70;99.90;;;;;;5074028;28;20771;-51
2023/10/08 02:16:18;;;;;;;13.33;3.63;;;10.60;99.90;;;;;;5073607;28;20439;-46
2023/10/08 02:18:44;;;;;;;11.57;3.07;;;10.60;99.90;;;;;;5073591;28;20460;-46
2023/10/08 02:21:10;;;;;;;11.10;2.97;;;10.60;99.90;;;;;;5073798;28;20502;-46
2023/10/08 02:23:36;;;;;;;11.47;3.37;;;10.60;99.90;;;;;;5073435;28;20179;-47
2023/10/08 02:26:02;;;;;;;11.00;3.23;;;10.60;99.90;;;;;;5073502;28;20475;-45
2023/10/08 02:28:28;;;;;;;11.17;3.10;;;10.60;99.90;;;;;;5073611;28;20747;-45
2023/10/08 02:30:54;;;;;;;18.40;3.33;;;10.60;99.90;;;;;;5073528;28;20456;-46
2023/10/08 02:33:19;;;;;;;12.40;3.27;;;10.60;99.90;;;;;;5073438;28;20427;-47
2023/10/08 02:35:46;;;;;;;11.70;3.00;;;10.50;99.90;;;;;;5073569;28;20202;-46
2023/10/08 02:38:16;;;;;;;10.60;2.90;;;10.50;99.90;;;;;;5073784;28;20268;-46
2023/10/08 02:40:48;;;;;;;16.37;3.40;;;10.50;99.90;;;;;;5073818;28;20428;-46
2023/10/08 02:43:15;;;;;;;9.50;2.60;;;10.50;99.90;;;;;;5073492;28;20400;-46
2023/10/08 02:45:41;;;;;;;7.30;2.63;;;10.50;99.90;;;;;;5073633;28;20438;-46
2023/10/08 02:48:14;;;;;;;13.33;2.60;;;10.50;99.90;;;;;;5073516;28;20422;-46
2023/10/08 02:50:40;;;;;;;13.10;2.87;;;10.40;99.90;;;;;;5073474;28;20810;-45
2023/10/08 02:53:12;;;;;;;11.13;2.80;;;10.40;99.90;;;;;;5073573;28;20425;-45
2023/10/08 02:55:43;;;;;;;12.67;2.60;;;10.30;99.90;;;;;;5073602;28;20260;-46
2023/10/08 02:58:18;;;;;;;11.60;2.77;;;10.30;99.90;;;;;;5073229;28;20786;-45
2023/10/08 03:00:48;;;;;;;12.70;2.77;;;10.30;99.90;;;;;;5073359;28;20403;-46
2023/10/08 03:03:15;;;;;;;9.17;2.47;;;10.30;99.90;;;;;;5073198;28;20437;-46
2023/10/08 03:05:49;;;;;;;5.63;2.13;;;10.30;99.90;;;;;;5073272;28;20510;-46
2023/10/08 03:08:19;;;;;;;7.50;2.23;;;10.30;99.90;;;;;;5073484;28;20444;-46
2023/10/08 03:10:48;;;;;;;11.43;2.73;;;10.30;99.90;;;;;;5073213;28;20465;-46
2023/10/08 03:13:16;;;;;;;9.87;2.50;;;10.30;99.90;;;;;;5073310;28;20525;-45
2023/10/08 03:18:34;;;;;;;10.03;2.43;;;10.20;99.90;;;;;;5073643;28;20413;-45
2023/10/08 03:21:03;;;;;;;6.40;2.33;;;10.20;99.90;;;;;;5072927;28;20886;-46
2023/10/08 03:23:36;;;;;;;4.27;1.93;;;10.20;99.90;;;;;;5072595;28;20833;-46
2023/10/08 03:26:10;;;;;;;9.90;1.80;;;10.20;99.90;;;;;;5071752;28;20495;-46
2023/10/08 03:28:37;;;;;;;10.20;2.17;;;10.20;99.90;;;;;;5073404;28;20423;-45
2023/10/08 03:31:04;;;;;;;6.20;1.83;;;10.20;99.90;;;;;;5073116;28;20463;-45
2023/10/08 03:33:34;;;;;;;3.33;2.20;;;10.20;99.90;;;;;;5072858;28;20974;-46
2023/10/08 03:36:29;;;;;;;6.70;2.07;;;10.20;99.90;;;;;;5073946;28;20894;-46
2023/10/08 03:38:57;;;;;;;11.83;1.77;;;10.10;99.90;;;;;;5076876;28;20769;-46
2023/10/08 03:41:27;;;;;;;18.03;2.70;;;10.10;99.90;;;;;;5076899;28;20427;-46
2023/10/08 03:43:55;;;;;;;6.60;2.37;;;10.10;99.90;;;;;;5076388;28;20418;-48
2023/10/08 03:46:23;;;;;;;9.97;2.70;;;10.10;99.90;;;;;;5076203;28;20418;-45
2023/10/08 03:48:51;;;;;;;9.87;2.33;;;10.10;99.90;;;;;;5076482;28;20430;-46
2023/10/08 03:51:20;;;;;;;11.93;2.90;;;10.00;99.90;;;;;;5076299;28;20508;-47
2023/10/08 03:56:48;;;;;;;10.00;2.40;;;10.00;99.90;;;;;;5063965;28;20759;-45
2023/10/08 03:59:24;;;;;;;5.67;1.97;;;9.90;99.90;;;;;;5076467;28;20422;-46
2023/10/08 04:01:54;;;;;;;11.00;2.83;;;9.90;99.90;;;;;;5076170;28;20408;-46
2023/10/08 04:04:21;;;;;;;6.43;2.50;;;9.90;99.90;;;;;;5076094;28;20461;-48
2023/10/08 04:06:51;;;;;;;8.77;1.93;;;9.90;99.90;;;;;;5076468;28;20418;-46
2023/10/08 04:14:18;;;;;;;4.60;1.60;;;9.90;99.90;;;;;;5076634;28;20431;-46
2023/10/08 04:16:44;;;;;;;8.90;2.13;;;9.90;99.90;;;;;;5076164;28;20442;-46
2023/10/08 04:19:10;;;;;;;16.13;2.40;;;9.80;99.90;;;;;;5075917;28;20412;-46
2023/10/08 04:21:36;;;;;;;8.73;2.80;;;9.90;99.90;;;;;;5075904;28;20778;-45
2023/10/08 04:24:05;;;;;;;7.13;1.60;;;9.80;99.90;;;;;;5075633;28;20472;-46
2023/10/08 04:26:32;;;;;;;11.23;2.00;;;9.80;99.90;;;;;;5075803;28;20224;-45
2023/10/08 04:29:01;;;;;;;7.17;2.30;;;9.80;99.90;;;;;;5075545;28;20775;-46
2023/10/08 04:31:37;;;;;;;9.47;2.17;;;9.90;99.90;;;;;;5075457;28;20467;-46
2023/10/08 04:34:22;;;;;;;10.50;2.37;;;9.80;99.90;;;;;;5075396;28;20809;-45
2023/10/08 04:36:54;;;;;;;6.50;2.10;;;9.80;99.90;;;;;;5075494;28;20447;-46
2023/10/08 04:39:32;;;;;;;7.90;1.80;;;9.80;99.90;;;;;;5075403;28;20419;-46
2023/10/08 04:42:14;;;;;;;6.63;2.23;;;9.80;99.90;;;;;;5075592;28;20414;-46
2023/10/08 04:44:40;;;;;;;4.43;1.70;;;9.70;99.90;;;;;;5075423;28;20835;-46
2023/10/08 04:47:09;;;;;;;4.07;2.07;;;9.70;99.90;;;;;;5074840;28;20447;-45
2023/10/08 04:49:38;;;;;;;8.93;2.27;;;9.70;99.90;;;;;;5075206;28;20414;-46
2023/10/08 04:52:18;;;;;;;8.50;2.20;;;9.70;99.90;;;;;;5075040;28;20484;-46
2023/10/08 04:55:01;;;;;;;5.00;1.90;;;9.70;99.90;;;;;;5075033;28;20743;-45
2023/10/08 04:57:30;;;;;;;6.53;2.00;;;9.70;99.90;;;;;;5075356;28;20426;-46
2023/10/08 04:59:57;;;;;;;4.40;1.50;;;9.70;99.90;;;;;;5074813;28;20856;-46
2023/10/08 05:02:49;;;;;;;7.77;1.73;;;9.70;99.90;;;;;;5073537;28;20197;-46
2023/10/08 05:08:01;;;;;;;8.50;2.70;;;9.70;99.90;;;;;;5075109;28;20754;-46
2023/10/08 05:15:37;;;;;;;4.50;2.10;;;9.70;99.90;;;;;;5074874;28;20417;-46
2023/10/08 05:23:42;;;;;;;10.70;2.20;;;9.60;99.90;;;;;;5074876;28;20922;-46
2023/10/08 05:28:46;;;;;;;7.13;1.97;;;9.50;99.90;;;;;;5074622;28;20410;-46
2023/10/08 05:34:14;;;;;;;7.53;2.00;;;9.50;99.90;;;;;;5074560;28;20510;-47
2023/10/08 05:36:51;;;;;;;5.83;1.93;;;9.40;99.90;;;;;;5074378;28;20493;-45
2023/10/08 05:42:31;;;;;;;7.60;1.93;;;9.40;99.90;;;;;;5074564;28;20401;-46
2023/10/08 05:50:38;;;;;;;4.67;1.90;;;9.40;99.90;;;;;;5074291;28;20416;-46
2023/10/08 05:55:27;;;;;;;5.63;2.00;;;9.40;99.90;;;;;;5074128;28;20764;-46
2023/10/08 05:58:13;;;;;;;4.33;1.83;;;9.40;99.90;;;;;;5073375;28;20507;-45
2023/10/08 06:01:07;;;;;;;9.77;1.60;;;9.40;99.90;;;;;;5073787;28;20868;-46
2023/10/08 06:03:37;;;;;;;5.00;1.83;;;9.30;99.90;;;;;;5074008;28;20420;-46
2023/10/08 06:08:51;;;;;;;5.63;1.77;;;9.20;99.90;;;;;;5074360;28;20491;-46
2023/10/08 06:11:36;;;;;;;10.77;2.40;;;9.20;99.90;;;;;;5073863;28;20474;-46
2023/10/08 06:14:11;;;;;;;5.37;2.27;;;9.20;99.90;;;;;;5073949;28;20502;-46
2023/10/08 06:16:43;;;;;;;6.13;1.70;;;9.20;99.90;;;;;;5073745;28;20495;-46
2023/10/08 06:19:10;;;;;;;4.43;1.90;;;9.20;99.90;;;;;;5073747;28;20747;-46
2023/10/08 06:21:39;;;;;;;4.70;1.80;;;9.30;99.90;;;;;;5073465;28;20418;-46
2023/10/08 06:24:11;;;;;;;9.63;1.87;;;9.30;99.90;;;;;;5073270;28;20479;-47
2023/10/08 06:26:42;;;;;;;4.93;1.83;;;9.30;99.90;;;;;;5073327;28;20430;-47
2023/10/08 06:29:31;;;;;;;9.90;2.03;;;9.30;99.90;;;;;;5073438;28;20403;-47
2023/10/08 06:32:01;;;;;;;7.80;1.83;;;9.30;99.90;;;;;;5073565;28;20467;-46
2023/10/08 06:34:28;;;;;;;6.70;1.90;;;9.40;99.90;;;;;;5073525;28;20416;-48
2023/10/08 06:36:55;;;;;;;6.80;1.80;;;9.40;99.90;;;;;;5073774;28;20423;-47
2023/10/08 06:39:25;;;;;;;11.50;2.30;;;9.40;99.90;;;;;;5073248;28;20420;-46
2023/10/08 06:41:57;;;;;;;6.90;2.23;;;9.40;99.90;;;;;;5073508;28;20418;-46
2023/10/08 06:44:22;;;;;;;7.10;2.13;;;9.40;99.90;;;;;;5073472;28;20422;-46
2023/10/08 06:46:48;;;;;;;5.17;2.00;;;9.40;99.90;;;;;;5073535;28;20502;-46
2023/10/08 06:49:15;;;;;;;8.20;2.30;;;9.50;99.90;;;;;;5073254;28;20232;-46
2023/10/08 06:51:44;;;;;;;5.43;2.10;;;9.50;99.90;;;;;;5072896;28;20816;-46
2023/10/08 06:54:13;;;;;;;3.57;1.57;;;9.50;99.90;;;;;;5073627;28;20418;-46
2023/10/08 06:56:39;;;;;;;14.10;2.27;;;9.60;99.90;;;;;;5073452;28;20444;-46
2023/10/08 06:59:09;;;;;;;5.50;2.17;;;9.60;99.90;;;;;;5073345;28;20428;-46
2023/10/08 07:01:41;;;;;;;7.47;2.20;;;9.60;99.90;;;;;;5073334;28;20416;-46
2023/10/08 07:04:11;;;;;;;4.30;2.00;;;9.70;99.90;;;;;;5072919;28;20391;-46
2023/10/08 07:06:41;;;;;;;7.37;2.00;;;9.70;99.90;;;;;;5084986;28;20514;-46
2023/10/08 07:09:22;;;;;;;5.50;2.00;;;9.70;99.90;;;;;;5093197;28;20956;-47
2023/10/08 07:11:54;;;;;;;4.03;2.00;;;9.80;99.90;;;;;;5097548;28;20544;-46
2023/10/08 07:14:28;;;;;;;4.77;2.17;;;9.80;99.90;;;;;;5097289;28;20813;-46
2023/10/08 07:16:54;;;;;;;8.00;1.90;;;9.80;99.90;;;;;;5097092;28;20505;-47
2023/10/08 07:19:23;;;;;;;7.73;1.93;;;9.90;99.90;;;;;;5097254;28;20826;-46
2023/10/08 07:21:53;;;;;;;9.60;2.30;;;9.90;99.90;;;;;;5097239;28;20450;-46
2023/10/08 07:24:21;;;;;;;5.07;2.10;;;10.00;99.90;;;;;;5097167;28;20785;-46
2023/10/08 07:26:47;;;;;;;6.50;1.80;;;10.20;99.90;;;;;;5096994;28;20505;-47
2023/10/08 07:29:17;;;;;;;7.27;2.10;;;10.90;99.90;;;;;;5097435;28;20432;-47
2023/10/08 07:31:48;;;;;;;7.80;1.83;;;11.90;99.90;;;;;;5096829;28;20540;-47
2023/10/08 07:34:18;;;;;;;4.70;1.37;;;12.90;99.90;;;;;;5097068;28;20522;-46
2023/10/08 07:36:49;;;;;;;6.03;1.83;;;14.20;1.00;;;;;;5096870;28;20418;-48
2023/10/08 07:39:33;;;;;;;12.93;1.67;;;15.30;99.90;;;;;;5097033;28;20418;-47
2023/10/08 07:42:05;;;;;;;9.90;2.00;;;16.20;93.00;;;;;;5096862;28;20404;-47
2023/10/08 07:44:31;;;;;;;6.67;1.70;;;17.10;1.00;;;;;;5096748;28;20445;-47
2023/10/08 07:46:57;;;;;;;5.40;1.50;;;17.50;1.00;;;;;;5096834;28;20436;-47
2023/10/08 07:49:25;;;;;;;4.83;1.50;;;17.90;1.00;;;;;;5096516;28;20765;-46
2023/10/08 07:51:51;;;;;;;9.93;1.80;;;18.30;1.00;;;;;;5096647;28;20248;-46
2023/10/08 07:54:23;;;;;;;3.40;1.53;;;18.60;1.00;;;;;;5094594;28;20426;-48
2023/10/08 07:56:51;;;;;;;8.37;2.30;;;18.80;1.00;;;;;;5096569;28;20404;-48
2023/10/08 07:59:17;;;;;;;9.83;1.83;;;19.10;1.00;;;;;;5096144;28;20550;-47
2023/10/08 08:01:43;;;;;;;3.97;1.30;;;19.30;1.00;;;;;;5096122;28;20860;-48
2023/10/08 08:04:21;;;;;;;7.37;1.60;;;19.60;1.00;;;;;;5096179;28;20633;-48
2023/10/08 08:06:49;;;;;;;10.10;1.80;;;19.80;1.00;;;;;;5096616;28;20404;-48
2023/10/08 08:09:23;;;;;;;4.87;1.50;;;19.90;1.00;;;;;;5096317;28;20524;-47
2023/10/08 08:11:49;;;;;;;3.80;1.27;;;19.90;1.00;;;;;;5096682;28;20460;-48
2023/10/08 08:14:24;;;;;;;3.03;1.33;;;20.00;1.00;;;;;;5096087;28;20418;-48
2023/10/08 08:16:49;;;;;;;2.40;1.30;;;19.90;1.00;;;;;;5096389;28;20421;-48
2023/10/08 08:19:15;;;;;;;6.87;1.80;;;19.80;1.00;;;;;;5096209;28;20484;-47
2023/10/08 08:21:45;;;;;;;5.17;1.30;;;19.80;1.00;;;;;;5095023;28;20187;-47
2023/10/08 08:24:12;;;;;;;5.50;1.30;;;19.80;1.00;;;;;;5095762;28;20476;-47
2023/10/08 08:27:00;;;;;;;4.10;1.57;;;19.90;1.00;;;;;;5095699;28;20478;-47
2023/10/08 08:29:27;;;;;;;4.00;1.50;;;19.80;1.00;;;;;;5095951;28;20424;-48
2023/10/08 08:31:53;;;;;;;5.77;1.60;;;19.90;1.00;;;;;;5095790;28;20672;-48
2023/10/08 08:34:21;;;;;;;8.00;1.50;;;20.10;1.00;;;;;;5095989;28;20443;-48
2023/10/08 08:36:48;;;;;;;3.57;1.63;;;20.00;1.00;;;;;;5095436;28;20883;-47
2023/10/08 08:39:28;;;;;;;6.00;1.80;;;19.80;1.00;;;;;;5090887;28;20518;-48
2023/10/08 08:41:58;;;;;;;2.87;1.37;;;19.60;1.00;;;;;;5087992;28;20428;-47
2023/10/08 08:44:30;;;;;;;3.83;1.43;;;19.00;1.00;;;;;;5086322;28;20442;-48
2023/10/08 08:46:58;;;;;;;6.70;1.50;;;18.50;1.00;;;;;;5088002;28;20493;-47
2023/10/08 08:49:25;;;;;;;5.60;1.80;;;18.50;1.00;;;;;;5085177;28;20954;-48
2023/10/08 08:51:55;;;;;;;5.90;1.50;;;18.50;1.00;;;;;;5085429;28;20468;-49
2023/10/08 08:54:21;;;;;;;5.30;1.60;;;18.40;1.00;;;;;;5087690;28;20446;-49
2023/10/08 08:56:47;;;;;;;6.83;1.73;;;18.30;1.00;;;;;;5084503;28;20496;-48
2023/10/08 08:59:14;;;;;;;4.13;1.30;;;18.00;1.00;;;;;;5087066;28;20247;-48
2023/10/08 09:01:41;;;;;;;3.73;1.53;;;17.30;1.00;;;;;;5084471;28;20440;-47
2023/10/08 09:04:07;;;;;;;4.90;1.77;;;16.50;1.00;;;;;;5086427;28;20436;-49
2023/10/08 09:06:39;;;;;;;6.03;1.60;;;15.70;1.00;;;;;;5086953;28;20843;-47
2023/10/08 09:09:14;;;;;;;3.90;1.10;;;15.00;1.00;;;;;;5085734;28;20557;-48
2023/10/08 09:11:43;;;;;;;4.67;1.30;;;14.70;1.00;;;;;;5086302;28;20468;-48
2023/10/08 09:14:10;;;;;;;4.70;1.33;;;14.40;1.00;;;;;;5086840;28;20447;-47
2023/10/08 09:16:36;;;;;;;6.00;1.47;;;14.10;1.00;;;;;;5080481;28;20440;-47
2023/10/08 09:19:04;;;;;;;5.27;1.60;;;14.00;1.00;;;;;;5086878;28;20451;-48
2023/10/08 09:21:30;;;;;;;6.67;1.47;;;13.90;1.00;;;;;;5089442;28;20436;-48
2023/10/08 09:23:56;;;;;;;8.30;1.50;;;13.80;1.00;;;;;;5085941;28;20454;-47
2023/10/08 09:26:26;;;;;;;3.67;1.50;;;13.80;1.00;;;;;;5086015;28;20437;-48
2023/10/08 09:28:53;;;;;;;4.43;1.90;;;13.80;1.00;;;;;;5090306;28;20185;-48
2023/10/08 09:31:23;;;;;;;2.20;1.13;;;13.90;1.00;;;;;;5079925;28;20469;-47
2023/10/08 09:33:56;;;;;;;5.87;1.33;;;14.00;1.00;;;;;;5087765;28;20446;-48
2023/10/08 09:36:31;;;;;;;4.37;1.30;;;14.10;1.00;;;;;;5085081;28;21012;-49
2023/10/08 09:39:00;;;;;;;3.60;1.50;;;14.10;1.00;;;;;;5086739;28;20511;-49
2023/10/08 09:41:28;;;;;;;8.07;1.40;;;14.20;1.00;;;;;;5094939;28;20468;-49
2023/10/08 09:43:56;;;;;;;7.30;4.40;;;14.20;1.00;;;;;;5079307;28;20456;-49
2023/10/08 09:46:36;;;;;;;2.40;1.10;;;14.10;1.00;;;;;;5082970;28;20447;-47
2023/10/08 09:49:02;;;;;;;4.13;1.17;;;14.20;1.00;;;;;;5083552;28;20547;-48
2023/10/08 09:51:32;;;;;;;3.23;1.27;;;14.30;1.00;;;;;;5086166;28;20580;-48
2023/10/08 09:54:10;;;;;;;6.20;1.90;;;14.30;1.00;;;;;;5094138;28;20223;-48
2023/10/08 09:56:36;;;;;;;5.07;2.03;;;14.30;1.00;;;;;;5094167;28;20411;-48
2023/10/08 09:59:02;;;;;;;1.40;1.13;;;14.30;1.00;;;;;;5094473;28;20412;-48
2023/10/08 10:01:31;;;;;;;2.03;0.93;;;14.40;1.00;;;;;;5094134;28;20423;-48
2023/10/08 10:03:59;;;;;;;2.30;1.10;;;14.40;1.00;;;;;;5094294;28;20459;-48
2023/10/08 10:06:26;;;;;;;3.87;1.50;;;14.40;1.00;;;;;;5094375;28;20416;-48
2023/10/08 10:08:55;;;;;;;1.93;1.20;;;14.50;1.00;;;;;;5094364;28;20510;-49
2023/10/08 10:11:26;;;;;;;1.93;1.13;;;14.70;1.00;;;;;;5094100;28;20462;-48
2023/10/08 10:13:59;;;;;;;5.20;1.37;;;15.00;1.00;;;;;;5094299;28;20415;-48
2023/10/08 10:16:26;;;;;;;2.97;1.10;;;15.20;1.00;;;;;;5094157;28;20411;-48
2023/10/08 10:18:59;;;;;;;6.33;1.20;;;15.50;1.00;;;;;;5094364;28;20404;-48
2023/10/08 10:21:29;;;;;;;1.73;0.97;;;15.70;1.00;;;;;;5093831;28;20430;-47
2023/10/08 10:23:56;;;;;;;3.67;1.10;;;16.00;1.00;;;;;;5093701;28;20407;-48
2023/10/08 10:26:35;;;;;;;3.20;1.37;;;16.30;1.00;;;;;;5093697;28;20407;-46
2023/10/08 10:29:07;;;;;;;4.90;1.67;;;17.10;1.00;;;;;;5093903;28;20466;-47
2023/10/08 10:31:34;;;;;;;2.27;1.13;;;17.50;1.00;;;;;;5093839;28;20497;-47
2023/10/08 10:34:10;;;;;;;3.17;1.03;;;17.80;1.00;;;;;;5093685;28;20425;-48
2023/10/08 10:36:37;;;;;;;4.40;1.23;;;18.00;1.00;;;;;;5093446;28;20401;-48
2023/10/08 10:39:25;;;;;;;2.80;1.47;;;17.90;1.00;;;;;;5093540;28;20424;-48
2023/10/08 10:41:57;;;;;;;3.73;1.40;;;17.60;1.00;;;;;;5093498;28;20919;-48
2023/10/08 10:44:25;;;;;;;4.93;1.80;;;17.30;1.00;;;;;;5093327;28;20499;-47
2023/10/08 10:46:51;;;;;;;3.10;1.40;;;17.30;1.00;;;;;;5093317;28;20770;-48
2023/10/08 10:49:21;;;;;;;2.03;1.13;;;18.60;1.00;;;;;;5093604;28;20415;-50
2023/10/08 10:51:49;;;;;;;2.93;1.00;;;19.90;1.00;;;;;;5093430;28;20213;-48
2023/10/08 10:54:23;;;;;;;1.60;1.20;;;20.30;1.00;;;;;;5093692;28;20419;-48
2023/10/08 10:57:03;;;;;;;3.70;1.30;;;19.90;1.00;;;;;;5093755;28;20489;-49
2023/10/08 10:59:36;;;;;;;2.00;1.00;;;19.10;1.00;;;;;;5093423;28;20461;-48
2023/10/08 11:02:20;;;;;;;3.23;1.10;;;18.70;1.00;;;;;;5093379;28;20411;-48
2023/10/08 11:04:49;;;;;;;2.67;1.10;;;18.50;1.00;;;;;;5093505;28;20413;-48
2023/10/08 11:07:19;;;;;;;2.70;1.13;;;19.40;1.00;;;;;;5093394;28;20496;-48
2023/10/08 11:09:47;;;;;;;3.03;1.03;;;21.10;1.00;;;;;;5093624;28;20567;-48
2023/10/08 11:12:18;;;;;;;3.57;1.47;;;21.90;1.00;;;;;;5093489;28;20488;-49
2023/10/08 11:14:47;;;;;;;1.73;0.97;;;23.10;1.00;;;;;;5093704;28;20414;-48
2023/10/08 11:17:17;;;;;;;5.33;1.40;;;24.20;1.00;;;;;;5093343;28;20407;-47
2023/10/08 11:19:48;;;;;;;1.80;1.40;;;24.70;99.90;;;;;;5093221;28;20464;-47
2023/10/08 11:22:18;;;;;;;2.43;1.30;;;25.60;99.90;;;;;;5093039;28;20419;-47
2023/10/08 11:24:47;;;;;;;1.40;1.10;;;26.00;99.90;;;;;;5093164;28;20473;-46
2023/10/08 11:27:16;;;;;;;2.50;1.40;;;26.30;99.90;;;;;;5093402;28;20459;-48
2023/10/08 11:29:43;;;;;;;4.07;1.20;;;26.40;99.90;;;;;;5093267;28;20424;-46
2023/10/08 11:32:13;;;;;;;1.90;1.20;;;26.30;99.90;;;;;;5092998;28;20799;-47
2023/10/08 11:34:39;;;;;;;6.17;1.80;;;26.40;99.90;;;;;;5093191;28;20419;-48
2023/10/08 11:37:19;;;;;;;4.47;1.43;;;26.30;99.90;;;;;;5093414;28;20407;-47
2023/10/08 11:39:46;;;;;;;5.00;1.27;;;25.90;99.90;;;;;;5093473;28;20424;-47
2023/10/08 11:44:59;;;;;;;1.93;1.37;;;24.20;99.90;;;;;;5093393;28;20406;-48
2023/10/08 11:47:30;;;;;;;3.13;1.20;;;23.70;99.90;;;;;;5092848;28;20454;-48
2023/10/08 11:50:10;;;;;;;5.63;1.40;;;23.10;99.90;;;;;;5093110;28;20450;-48
2023/10/08 11:52:41;;;;;;;4.97;1.13;;;22.60;99.90;;;;;;5093034;28;20447;-47
2023/10/08 11:55:07;;;;;;;2.97;1.60;;;22.30;99.90;;;;;;5092993;28;20403;-48
2023/10/08 11:57:35;;;;;;;2.60;1.90;;;22.50;99.90;;;;;;5094905;28;20462;-47
2023/10/08 12:00:16;;;;;;;2.33;1.30;;;23.70;99.90;;;;;;5096426;28;20479;-48
2023/10/08 12:02:43;;;;;;;2.37;1.33;;;25.20;99.90;;;;;;5096281;28;20408;-48
2023/10/08 12:05:18;;;;;;;1.97;1.20;;;26.20;99.90;;;;;;5096358;28;20427;-48
2023/10/08 12:07:47;;;;;;;2.60;1.33;;;26.50;99.90;;;;;;5096401;28;20418;-47
2023/10/08 12:10:16;;;;;;;2.93;1.40;;;26.80;99.90;;;;;;5096124;28;20431;-48
2023/10/08 12:12:43;;;;;;;2.07;1.40;;;27.00;99.90;;;;;;5096330;28;20624;-47
2023/10/08 12:15:09;;;;;;;4.20;1.63;;;27.10;99.90;;;;;;5096512;28;20415;-48
2023/10/08 12:17:39;;;;;;;2.53;1.40;;;27.30;99.90;;;;;;5096500;28;20438;-49
2023/10/08 12:20:34;;;;;;;5.00;1.30;;;26.60;99.90;;;;;;5096478;28;20407;-48
2023/10/08 12:22:56;;;;;;;6.17;1.53;;;25.50;99.90;;;;;;5095312;28;20428;-48
2023/10/08 12:25:22;;;;;;;2.23;1.20;;;24.30;99.90;;;;;;5095751;28;20883;-48
2023/10/08 12:27:49;;;;;;;4.90;2.07;;;23.10;99.90;;;;;;5096199;28;20411;-47
2023/10/08 12:30:14;;;;;;;5.00;1.67;;;22.30;99.90;;;;;;5095631;28;20441;-48
2023/10/08 12:32:42;;;;;;;3.53;1.63;;;21.60;99.90;;;;;;5095719;28;20471;-47
2023/10/08 12:35:12;;;;;;;37.43;33.43;;;20.70;99.90;;;;;;5095967;28;20217;-49
2023/10/08 12:37:44;;;;;;;4.93;1.87;;;20.00;99.90;;;;;;5096060;28;20851;-48
2023/10/08 12:40:22;;;;;;;3.63;1.80;;;19.20;99.90;;;;;;5095799;28;20419;-48
2023/10/08 12:42:48;;;;;;;565.57;433.53;;;18.80;99.90;;;;;;5095795;28;20446;-50
2023/10/08 12:45:13;;;;;;;37.50;25.20;;;18.40;99.90;;;;;;5096139;28;20455;-50
2023/10/08 12:47:39;;;;;;;74.73;67.13;;;18.10;99.90;;;;;;5094152;28;20479;-48
2023/10/08 12:50:07;;;;;;;4.53;3.50;;;18.00;99.90;;;;;;5095230;28;20177;-50
2023/10/08 12:52:36;;;;;;;8.00;6.43;;;17.80;99.90;;;;;;5095673;28;20269;-49
2023/10/08 12:55:03;;;;;;;228.50;159.70;;;17.60;99.90;;;;;;5095245;28;20451;-50
2023/10/08 12:57:33;;;;;;;101.07;68.67;;;17.40;99.90;;;;;;5095115;28;20431;-47
2023/10/08 12:59:59;;;;;;;48.63;35.33;;;17.30;99.90;;;;;;5095307;28;20426;-48
2023/10/08 13:02:28;;;;;;;19.37;14.60;;;17.20;99.90;;;;;;5095497;28;20894;-50
2023/10/08 13:04:59;;;;;;;41.90;30.90;;;17.20;99.90;;;;;;5095339;28;20426;-50
2023/10/08 13:07:26;;;;;;;26.30;15.27;;;17.10;99.90;;;;;;5095138;28;20436;-50
2023/10/08 13:09:52;;;;;;;17.70;14.87;;;16.90;99.90;;;;;;5095461;28;20443;-49
2023/10/08 13:12:17;;;;;;;5.70;3.53;;;16.80;99.90;;;;;;5094964;28;20497;-48
2023/10/08 13:14:44;;;;;;;2.80;1.93;;;16.70;99.90;;;;;;5094869;28;20648;-49
2023/10/08 13:17:10;;;;;;;2.30;1.70;;;16.60;99.90;;;;;;5094801;28;20262;-51
2023/10/08 13:19:39;;;;;;;4.60;1.80;;;16.50;99.90;;;;;;5094915;28;20423;-49
2023/10/08 13:22:08;;;;;;;3.87;2.03;;;16.50;99.90;;;;;;5095019;28;20418;-49
2023/10/08 13:24:35;;;;;;;4.50;1.87;;;16.50;99.90;;;;;;5094377;28;20505;-50
2023/10/08 13:27:01;;;;;;;5.53;1.60;;;16.50;99.90;;;;;;5095080;28;20421;-48
2023/10/08 13:29:27;;;;;;;4.07;1.73;;;16.40;99.90;;;;;;5094887;28;20417;-51
2023/10/08 13:31:54;;;;;;;3.57;1.47;;;16.30;99.90;;;;;;5094330;28;20656;-49
2023/10/08 13:34:21;;;;;;;10.67;2.20;;;16.20;99.90;;;;;;5094706;28;20192;-49
2023/10/08 13:36:49;;;;;;;3.67;1.93;;;16.00;99.90;;;;;;5094516;28;20973;-49
2023/10/08 13:39:21;;;;;;;3.43;1.60;;;16.00;99.90;;;;;;5094719;28;20419;-49
2023/10/08 13:41:51;;;;;;;2.50;1.47;;;15.90;99.90;;;;;;5094580;28;20396;-48
2023/10/08 13:44:18;;;;;;;4.43;1.83;;;15.90;99.90;;;;;;5094143;28;20406;-48
2023/10/08 13:46:48;;;;;;;3.33;1.60;;;15.80;99.90;;;;;;5094301;28;20436;-49
2023/10/08 13:49:16;;;;;;;5.37;1.73;;;15.70;99.90;;;;;;5094581;28;20415;-50
2023/10/08 13:51:44;;;;;;;4.63;1.93;;;15.60;99.90;;;;;;5094043;28;20498;-50
2023/10/08 13:54:10;;;;;;;5.23;1.90;;;15.50;99.90;;;;;;5094125;28;20811;-49
2023/10/08 13:56:37;;;;;;;4.03;1.40;;;15.40;99.90;;;;;;5094424;28;20418;-48